Terminal Aerodrome Forecast
Issued by NWS

Home | Current Version | Previous Version | Text Only | Print | Product List | Glossary On
Versions: 1 2 3 4 5 6 7 8 9 10 11 12
000
FTUS45 KABQ 301700
TAFSAF
TAF
KSAF 301721Z 3018/3118 02010KT P6SM SKC
     FM310100 13011KT P6SM FEW250
     FM310600 16008KT P6SM FEW250=

USA.gov is the U.S. government's official web portal to all federal, state and local government web resources and services.